Time;durP1;ratioP1;P1;durP2;ratioP2;P2;SDS_P1;SDS_P2;PMS_P1;PMS_P2;Temp;Humidity;BMP_temperature;BMP_pressure;BME280_temperature;BME280_humidity;BME280_pressure;Samples;Min_cycle;Max_cycle;Signal;HPM_P1;HPM_P2
2024/01/31 00:02:26;;;;;;;;;;;;;;;8.45;45.21;100283.25;67535;1282;1016332;-71
2024/01/31 00:05:29;;;;;;;;;;;;;;;8.59;44.87;100278.52;67491;1282;1016292;-71
2024/01/31 00:08:31;;;;;;;;;;;;;;;8.59;44.93;100274.36;67515;1282;1016484;-71
2024/01/31 00:11:34;;;;;;;;;;;;;;;8.52;45.14;100272.80;67526;1282;1016278;-71
2024/01/31 00:14:37;;;;;;;;;;;;;;;8.48;45.29;100273.09;67571;1282;1016305;-71
2024/01/31 00:17:39;;;;;;;;;;;;;;;8.49;45.38;100267.13;67552;1282;1018895;-71
2024/01/31 00:20:42;;;;;;;;;;;;;;;8.43;45.60;100271.48;67519;1282;1018917;-69
2024/01/31 00:23:44;;;;;;;;;;;;;;;8.40;45.62;100275.21;67610;1282;1016564;-71
2024/01/31 00:26:47;;;;;;;;;;;;;;;8.35;45.64;100278.30;67593;1282;1016915;-71
2024/01/31 00:29:49;;;;;;;;;;;;;;;8.31;45.88;100274.94;67579;1282;1016611;-72
2024/01/31 00:32:51;;;;;;;;;;;;;;;8.24;46.06;100276.51;67540;1282;1017112;-71
2024/01/31 00:35:55;;;;;;;;;;;;;;;8.27;46.13;100280.08;67528;1282;1017074;-71
2024/01/31 00:38:59;;;;;;;;;;;;;;;8.33;45.87;100278.37;67536;1282;1016491;-72
2024/01/31 00:42:02;;;;;;;;;;;;;;;8.28;46.05;100281.63;67519;1282;1016197;-70
2024/01/31 00:45:05;;;;;;;;;;;;;;;8.29;46.13;100277.96;67552;1282;1016318;-71
2024/01/31 00:48:07;;;;;;;;;;;;;;;8.30;46.36;100280.19;67585;1282;1016492;-71
2024/01/31 00:51:10;;;;;;;;;;;;;;;8.29;46.35;100278.66;67507;1282;1016369;-72
2024/01/31 00:54:12;;;;;;;;;;;;;;;8.30;46.30;100272.00;67530;1282;1016908;-72
2024/01/31 00:57:15;;;;;;;;;;;;;;;8.27;46.56;100272.95;67562;1282;1016221;-71
2024/01/31 01:00:17;;;;;;;;;;;;;;;8.25;46.48;100268.48;67598;1282;1016180;-72
2024/01/31 01:03:20;;;;;;;;;;;;;;;8.25;46.53;100270.21;67544;1282;1017314;-72
2024/01/31 01:06:23;;;;;;;;;;;;;;;8.29;46.76;100269.92;67571;1282;1016423;-71
2024/01/31 01:09:25;;;;;;;;;;;;;;;8.37;46.38;100267.26;67574;1282;1016784;-71
2024/01/31 01:12:28;;;;;;;;;;;;;;;8.37;46.55;100269.55;67497;1282;1016452;-70
2024/01/31 01:15:30;;;;;;;;;;;;;;;8.34;46.41;100269.63;67540;1282;1016439;-71
2024/01/31 01:18:33;;;;;;;;;;;;;;;8.35;46.47;100260.02;67573;1282;1016210;-71
2024/01/31 01:21:35;;;;;;;;;;;;;;;8.31;46.57;100264.82;67583;1282;1016356;-72
2024/01/31 01:24:38;;;;;;;;;;;;;;;8.34;46.42;100257.08;67531;1282;1016937;-71
2024/01/31 01:27:42;;;;;;;;;;;;;;;8.28;46.59;100255.83;67567;1282;1015951;-71
2024/01/31 01:30:45;;;;;;;;;;;;;;;8.24;46.66;100258.23;67586;1282;1016285;-72
2024/01/31 01:33:47;;;;;;;;;;;;;;;8.20;46.95;100259.92;67580;1282;1016583;-71
2024/01/31 01:36:51;;;;;;;;;;;;;;;8.25;46.92;100264.48;67528;1282;1016298;-71
2024/01/31 01:39:53;;;;;;;;;;;;;;;8.21;46.93;100265.11;67579;1282;1016503;-72
2024/01/31 01:42:55;;;;;;;;;;;;;;;8.19;46.97;100264.13;67548;1282;1016456;-72
2024/01/31 01:45:58;;;;;;;;;;;;;;;8.12;47.21;100263.80;67516;1282;1016262;-71
2024/01/31 01:49:00;;;;;;;;;;;;;;;8.17;47.11;100257.05;67562;1282;1018096;-71
2024/01/31 01:52:03;;;;;;;;;;;;;;;8.16;47.06;100254.46;67556;1282;1016372;-71
2024/01/31 01:55:06;;;;;;;;;;;;;;;8.12;47.34;100250.39;67537;1282;1016500;-72
2024/01/31 01:58:08;;;;;;;;;;;;;;;8.08;47.20;100249.10;67531;1282;1016633;-71
2024/01/31 02:01:11;;;;;;;;;;;;;;;8.07;47.40;100247.75;67574;1282;1016450;-71
2024/01/31 02:04:13;;;;;;;;;;;;;;;8.02;47.47;100244.73;67597;1282;1018740;-72
2024/01/31 02:07:15;;;;;;;;;;;;;;;8.05;47.45;100242.55;67565;1282;1016427;-72
2024/01/31 02:10:18;;;;;;;;;;;;;;;8.20;47.32;100245.45;67544;1282;1015919;-72
2024/01/31 02:13:20;;;;;;;;;;;;;;;8.13;47.29;100252.27;67545;1282;1016450;-71
2024/01/31 02:16:23;;;;;;;;;;;;;;;8.10;47.41;100248.70;67584;1282;1016456;-72
2024/01/31 02:19:25;;;;;;;;;;;;;;;8.11;47.47;100248.67;67583;1282;1016410;-71
2024/01/31 02:22:28;;;;;;;;;;;;;;;8.06;47.57;100254.91;67523;1282;1016446;-71
2024/01/31 02:25:30;;;;;;;;;;;;;;;8.11;47.66;100245.53;67521;1282;1018289;-72
2024/01/31 02:28:33;;;;;;;;;;;;;;;8.01;47.91;100246.85;67568;1282;1016468;-71
2024/01/31 02:31:35;;;;;;;;;;;;;;;8.09;47.72;100245.94;67578;1282;1016583;-71
2024/01/31 02:34:38;;;;;;;;;;;;;;;8.16;47.44;100242.26;67518;1282;1016829;-71
2024/01/31 02:37:40;;;;;;;;;;;;;;;8.20;47.03;100244.05;67563;1282;1016469;-71
2024/01/31 02:40:43;;;;;;;;;;;;;;;8.19;47.29;100243.73;67551;1282;1016476;-69
2024/01/31 02:43:45;;;;;;;;;;;;;;;8.20;47.34;100244.21;67562;1282;1016449;-71
2024/01/31 02:46:48;;;;;;;;;;;;;;;8.21;47.49;100244.20;67510;1282;1019739;-71
2024/01/31 02:49:50;;;;;;;;;;;;;;;8.24;47.45;100238.38;67552;1282;1016146;-70
2024/01/31 02:52:53;;;;;;;;;;;;;;;8.26;47.35;100241.97;67595;1282;1019303;-71
2024/01/31 02:55:55;;;;;;;;;;;;;;;8.18;47.32;100240.29;67586;1282;1016517;-71
2024/01/31 02:58:58;;;;;;;;;;;;;;;8.14;47.60;100242.30;67530;1282;1016323;-71
2024/01/31 03:02:00;;;;;;;;;;;;;;;8.16;47.90;100243.84;67525;1282;1016379;-70
2024/01/31 03:05:03;;;;;;;;;;;;;;;8.06;48.14;100242.19;67576;1282;1016054;-70
2024/01/31 03:08:06;;;;;;;;;;;;;;;8.10;48.17;100243.63;67561;1282;1016432;-71
2024/01/31 03:11:08;;;;;;;;;;;;;;;8.09;48.06;100241.77;67518;1282;1016499;-71
2024/01/31 03:14:11;;;;;;;;;;;;;;;8.09;48.05;100238.45;67567;1282;1016518;-72
2024/01/31 03:17:13;;;;;;;;;;;;;;;8.12;48.29;100242.89;67574;1282;1016738;-70
2024/01/31 03:20:16;;;;;;;;;;;;;;;8.12;48.32;100239.94;67533;1282;1016296;-71
2024/01/31 03:23:18;;;;;;;;;;;;;;;8.08;48.19;100237.61;67517;1282;1016498;-71
2024/01/31 03:26:21;;;;;;;;;;;;;;;8.10;48.34;100242.07;67555;1282;1016395;-70
2024/01/31 03:29:23;;;;;;;;;;;;;;;8.05;48.34;100244.48;67568;1282;1016799;-71
2024/01/31 03:32:26;;;;;;;;;;;;;;;8.03;48.64;100244.71;67516;1282;1016390;-72
2024/01/31 03:35:28;;;;;;;;;;;;;;;8.08;48.43;100244.39;67519;1282;1016377;-72
2024/01/31 03:38:31;;;;;;;;;;;;;;;8.11;48.46;100241.69;64994;1283;6371115;-71
2024/01/31 03:41:33;;;;;;;;;;;;;;;8.10;48.73;100244.17;67632;1281;1016346;-71
2024/01/31 03:44:36;;;;;;;;;;;;;;;8.12;48.69;100247.60;67489;1282;1016317;-72
2024/01/31 03:47:38;;;;;;;;;;;;;;;8.18;48.68;100244.98;67520;1282;1018070;-72
2024/01/31 03:50:41;;;;;;;;;;;;;;;8.25;48.18;100248.27;67523;1282;1016384;-71
2024/01/31 03:53:45;;;;;;;;;;;;;;;8.24;48.51;100244.48;67569;1282;1016496;-68
2024/01/31 03:56:56;;;;;;;;;;;;;;;8.30;48.64;100243.94;67549;1281;1016438;-70
2024/01/31 04:00:04;;;;;;;;;;;;;;;8.33;48.48;100238.63;67547;1282;1016425;-71
2024/01/31 04:03:07;;;;;;;;;;;;;;;8.28;48.52;100235.09;67535;1282;1016475;-71
2024/01/31 04:06:10;;;;;;;;;;;;;;;8.25;48.82;100240.09;67552;1282;1016491;-71
2024/01/31 04:09:13;;;;;;;;;;;;;;;8.19;48.98;100239.39;67517;1282;1016442;-70
2024/01/31 04:12:16;;;;;;;;;;;;;;;8.22;49.12;100240.69;67521;1282;1016519;-71
2024/01/31 04:15:18;;;;;;;;;;;;;;;8.24;48.92;100244.48;67530;1282;1018436;-69
2024/01/31 04:18:20;;;;;;;;;;;;;;;8.25;48.96;100238.33;67525;1282;1016578;-71
2024/01/31 04:21:23;;;;;;;;;;;;;;;8.18;49.44;100239.57;67553;1282;1016486;-71
2024/01/31 04:24:25;;;;;;;;;;;;;;;8.15;49.56;100245.94;67540;1282;1016388;-72
2024/01/31 04:27:28;;;;;;;;;;;;;;;8.22;49.33;100247.48;67509;1282;1016028;-71
2024/01/31 04:30:30;;;;;;;;;;;;;;;8.23;49.26;100250.08;67524;1282;1016681;-71
2024/01/31 04:33:33;;;;;;;;;;;;;;;8.22;49.36;100251.65;67545;1282;1016413;-71
2024/01/31 04:36:35;;;;;;;;;;;;;;;8.25;49.18;100254.20;67563;1282;1016627;-70
2024/01/31 04:39:38;;;;;;;;;;;;;;;8.26;49.17;100252.05;67528;1282;1016264;-72
2024/01/31 04:42:40;;;;;;;;;;;;;;;8.28;49.15;100246.45;67531;1282;1016299;-71
2024/01/31 04:45:43;;;;;;;;;;;;;;;8.35;49.23;100247.80;67503;1282;1016467;-69
2024/01/31 04:48:46;;;;;;;;;;;;;;;8.35;49.07;100239.61;67551;1282;1016526;-71
2024/01/31 04:51:48;;;;;;;;;;;;;;;8.35;49.01;100242.92;67524;1282;1016568;-71
2024/01/31 04:54:51;;;;;;;;;;;;;;;8.32;49.23;100245.27;67503;1282;1016445;-71
2024/01/31 04:57:54;;;;;;;;;;;;;;;8.30;49.17;100248.31;67551;1282;1016955;-71
2024/01/31 05:00:56;;;;;;;;;;;;;;;8.24;49.30;100243.59;67555;1282;1016472;-71
2024/01/31 05:03:59;;;;;;;;;;;;;;;8.25;49.71;100242.52;67526;1282;1016290;-71
2024/01/31 05:07:01;;;;;;;;;;;;;;;8.32;49.34;100242.31;67540;1282;1016252;-71
2024/01/31 05:10:04;;;;;;;;;;;;;;;8.35;49.09;100248.17;67581;1282;1016088;-71
2024/01/31 05:13:07;;;;;;;;;;;;;;;8.33;49.33;100247.88;67524;1282;1016488;-70
2024/01/31 05:16:09;;;;;;;;;;;;;;;8.29;49.33;100253.38;67527;1282;1016360;-71
2024/01/31 05:19:12;;;;;;;;;;;;;;;8.16;50.04;100257.75;67549;1282;1016256;-71
2024/01/31 05:22:15;;;;;;;;;;;;;;;8.12;50.03;100261.52;67501;1282;1016169;-71
2024/01/31 05:25:17;;;;;;;;;;;;;;;8.14;50.19;100261.48;67553;1282;1017528;-71
2024/01/31 05:28:20;;;;;;;;;;;;;;;8.16;49.87;100261.08;67553;1282;1016597;-71
2024/01/31 05:31:22;;;;;;;;;;;;;;;8.17;50.14;100269.05;67508;1282;1016511;-71
2024/01/31 05:34:26;;;;;;;;;;;;;;;8.26;49.88;100271.91;67498;1282;1016493;-71
2024/01/31 05:37:29;;;;;;;;;;;;;;;8.18;50.24;100271.64;67522;1282;1016121;-71
2024/01/31 05:40:31;;;;;;;;;;;;;;;8.23;50.19;100270.63;67555;1282;1016358;-71
2024/01/31 05:43:34;;;;;;;;;;;;;;;8.32;50.33;100270.56;67557;1282;1015750;-71
2024/01/31 05:46:36;;;;;;;;;;;;;;;8.39;50.16;100265.14;67529;1282;1016428;-71
2024/01/31 05:49:39;;;;;;;;;;;;;;;8.37;50.32;100267.96;67516;1282;1018730;-71
2024/01/31 05:52:41;;;;;;;;;;;;;;;8.35;50.38;100273.95;67556;1282;1016406;-71
2024/01/31 05:55:44;;;;;;;;;;;;;;;8.48;50.45;100265.23;67525;1282;1016435;-71
2024/01/31 05:58:46;;;;;;;;;;;;;;;8.59;50.31;100270.84;67539;1282;1016374;-71
2024/01/31 06:01:49;;;;;;;;;;;;;;;8.64;50.30;100263.38;67509;1282;1016397;-71
2024/01/31 06:04:51;;;;;;;;;;;;;;;8.61;50.43;100264.52;67506;1282;1017075;-72
2024/01/31 06:07:54;;;;;;;;;;;;;;;8.70;50.29;100267.91;67565;1282;1016055;-71
2024/01/31 06:11:02;;;;;;;;;;;;;;;8.73;50.37;100274.09;67547;1282;1016432;-71
2024/01/31 06:14:06;;;;;;;;;;;;;;;8.73;50.38;100274.28;67552;1282;1016609;-70
2024/01/31 06:17:09;;;;;;;;;;;;;;;8.84;50.13;100276.73;67539;1282;1018026;-70
2024/01/31 06:20:12;;;;;;;;;;;;;;;8.84;50.12;100273.23;67540;1282;1016468;-71
2024/01/31 06:23:14;;;;;;;;;;;;;;;8.90;50.26;100281.09;67571;1282;1016481;-71
2024/01/31 06:26:17;;;;;;;;;;;;;;;9.06;49.73;100281.45;67515;1282;1016305;-72
2024/01/31 06:29:19;;;;;;;;;;;;;;;9.10;49.92;100287.80;67504;1282;1016179;-71
2024/01/31 06:32:22;;;;;;;;;;;;;;;9.15;49.64;100289.73;67567;1282;1016450;-71
2024/01/31 06:35:25;;;;;;;;;;;;;;;9.18;49.48;100291.73;67523;1282;1016351;-71
2024/01/31 06:38:27;;;;;;;;;;;;;;;9.22;49.63;100291.77;67512;1282;1017912;-71
2024/01/31 06:41:30;;;;;;;;;;;;;;;9.20;49.60;100295.00;67524;1282;1016409;-71
2024/01/31 06:44:32;;;;;;;;;;;;;;;9.28;49.72;100293.85;67553;1282;1016457;-71
2024/01/31 06:47:35;;;;;;;;;;;;;;;9.24;49.59;100298.35;67557;1282;1016563;-70
2024/01/31 06:50:37;;;;;;;;;;;;;;;9.38;49.27;100301.20;67514;1282;1016361;-71
2024/01/31 06:53:40;;;;;;;;;;;;;;;9.47;49.22;100301.61;67526;1282;1016233;-72
2024/01/31 06:56:43;;;;;;;;;;;;;;;9.40;49.52;100301.67;67544;1282;1015952;-71
2024/01/31 06:59:45;;;;;;;;;;;;;;;9.47;49.42;100296.57;67504;1282;1016238;-71
2024/01/31 07:02:48;;;;;;;;;;;;;;;9.54;49.29;100296.52;67488;1282;1016688;-72
2024/01/31 07:05:50;;;;;;;;;;;;;;;9.58;49.21;100297.41;67574;1282;1018695;-72
2024/01/31 07:08:53;;;;;;;;;;;;;;;9.49;49.29;100296.99;67537;1282;1016400;-72
2024/01/31 07:11:56;;;;;;;;;;;;;;;9.47;49.39;100302.15;67562;1282;1015916;-72
2024/01/31 07:14:59;;;;;;;;;;;;;;;9.52;49.32;100306.66;67541;1282;1016203;-71
2024/01/31 07:18:02;;;;;;;;;;;;;;;9.55;49.24;100304.34;67516;1282;1016180;-71
2024/01/31 07:21:04;;;;;;;;;;;;;;;9.62;49.12;100304.59;67503;1282;1019786;-71
2024/01/31 07:24:07;;;;;;;;;;;;;;;9.70;49.00;100305.04;67531;1282;1016934;-71
2024/01/31 07:27:09;;;;;;;;;;;;;;;9.69;49.04;100302.43;67505;1282;1016375;-72
2024/01/31 07:30:12;;;;;;;;;;;;;;;9.68;49.22;100299.51;67547;1282;1016151;-71
2024/01/31 07:33:14;;;;;;;;;;;;;;;9.83;49.13;100298.33;67530;1282;1016097;-69
2024/01/31 07:36:17;;;;;;;;;;;;;;;9.87;48.91;100293.11;67545;1282;1015974;-71
2024/01/31 07:39:19;;;;;;;;;;;;;;;9.93;49.07;100289.05;67591;1282;1019195;-71
2024/01/31 07:42:22;;;;;;;;;;;;;;;9.95;48.89;100290.90;67550;1282;1016981;-72
2024/01/31 07:45:27;;;;;;;;;;;;;;;9.95;49.20;100294.41;67529;1280;1017294;-72
2024/01/31 07:48:29;;;;;;;;;;;;;;;10.10;48.95;100294.40;67544;1282;1016524;-71
2024/01/31 07:51:32;;;;;;;;;;;;;;;10.21;48.67;100295.40;67559;1282;1016595;-72
2024/01/31 07:54:34;;;;;;;;;;;;;;;10.39;48.44;100292.02;67530;1282;1016406;-72
2024/01/31 07:57:36;;;;;;;;;;;;;;;10.21;48.74;100297.31;67543;1282;1016422;-71
2024/01/31 08:00:39;;;;;;;;;;;;;;;10.32;48.70;100297.27;67559;1282;1016409;-72
2024/01/31 08:03:42;;;;;;;;;;;;;;;10.46;48.38;100299.98;67553;1282;1015801;-71
2024/01/31 08:06:45;;;;;;;;;;;;;;;10.40;48.36;100298.06;67545;1282;1016401;-72
2024/01/31 08:09:47;;;;;;;;;;;;;;;10.47;48.68;100295.36;67566;1282;1016400;-71
2024/01/31 08:12:50;;;;;;;;;;;;;;;10.52;48.21;100299.91;67554;1282;1015810;-70
2024/01/31 08:15:53;;;;;;;;;;;;;;;10.49;48.38;100304.56;67519;1282;1016165;-71
2024/01/31 08:18:55;;;;;;;;;;;;;;;10.66;48.37;100306.41;67562;1282;1016479;-70
2024/01/31 08:21:58;;;;;;;;;;;;;;;10.77;47.94;100301.63;67573;1282;1016321;-71
2024/01/31 08:25:00;;;;;;;;;;;;;;;10.81;47.94;100297.42;67520;1282;1016312;-71
2024/01/31 08:28:04;;;;;;;;;;;;;;;10.83;48.07;100300.84;67572;1282;1018072;-72
2024/01/31 08:31:06;;;;;;;;;;;;;;;10.86;48.24;100300.58;67540;1282;1016452;-71
2024/01/31 08:34:09;;;;;;;;;;;;;;;10.85;48.32;100307.77;67519;1282;1016222;-72
2024/01/31 08:37:11;;;;;;;;;;;;;;;10.73;48.07;100312.59;67540;1282;1016505;-72
2024/01/31 08:40:14;;;;;;;;;;;;;;;10.61;48.58;100318.48;67545;1282;1016388;-72
2024/01/31 08:43:17;;;;;;;;;;;;;;;10.71;48.75;100318.11;67517;1282;1017249;-72
2024/01/31 08:46:20;;;;;;;;;;;;;;;10.82;48.26;100318.23;67557;1282;1016377;-72
2024/01/31 08:49:23;;;;;;;;;;;;;;;10.82;48.62;100317.50;67560;1282;1016083;-72
2024/01/31 08:52:25;;;;;;;;;;;;;;;10.88;48.35;100315.86;67512;1282;1016382;-72
2024/01/31 08:55:28;;;;;;;;;;;;;;;10.89;48.68;100316.38;67570;1282;1016530;-71
2024/01/31 08:58:30;;;;;;;;;;;;;;;10.92;48.22;100312.95;67579;1282;1016902;-72
2024/01/31 09:01:33;;;;;;;;;;;;;;;10.94;48.18;100307.44;67532;1282;1016262;-72
2024/01/31 09:04:35;;;;;;;;;;;;;;;11.01;48.59;100310.67;67552;1282;1016993;-72
2024/01/31 09:07:38;;;;;;;;;;;;;;;11.12;47.93;100315.98;67565;1282;1016416;-72
2024/01/31 09:10:40;;;;;;;;;;;;;;;11.05;48.27;100320.47;67575;1282;1016419;-71
2024/01/31 09:13:43;;;;;;;;;;;;;;;11.05;48.33;100320.11;67533;1282;1016233;-72
2024/01/31 09:16:45;;;;;;;;;;;;;;;11.04;48.41;100323.30;67520;1282;1018073;-71
2024/01/31 09:19:49;;;;;;;;;;;;;;;10.95;48.55;100328.41;67557;1282;1016494;-72
2024/01/31 09:26:15;;;;;;;;;;;;;;;10.92;48.78;100338.32;67539;1282;1016472;-72
2024/01/31 09:29:18;;;;;;;;;;;;;;;10.90;48.66;100343.30;67569;1282;1016175;-71
2024/01/31 09:32:20;;;;;;;;;;;;;;;10.80;48.91;100339.30;67559;1282;1016444;-72
2024/01/31 09:35:23;;;;;;;;;;;;;;;10.84;49.38;100339.14;67563;1282;1016393;-72
2024/01/31 09:38:26;;;;;;;;;;;;;;;10.96;49.00;100333.08;67544;1282;1016527;-72
2024/01/31 09:41:29;;;;;;;;;;;;;;;10.98;49.09;100340.87;67574;1282;1016206;-72
2024/01/31 09:44:31;;;;;;;;;;;;;;;10.95;48.88;100337.65;67545;1282;1016458;-72
2024/01/31 09:47:34;;;;;;;;;;;;;;;11.05;49.20;100336.41;67518;1282;1016484;-72
2024/01/31 09:50:36;;;;;;;;;;;;;;;11.29;48.62;100331.60;67580;1282;1016399;-72
2024/01/31 09:53:39;;;;;;;;;;;;;;;11.36;48.88;100326.61;67567;1282;1016316;-72
2024/01/31 09:56:42;;;;;;;;;;;;;;;11.46;48.80;100323.05;67534;1282;1016407;-72
2024/01/31 09:59:44;;;;;;;;;;;;;;;11.53;48.41;100322.76;67576;1282;1016495;-72
2024/01/31 10:02:47;;;;;;;;;;;;;;;11.61;48.85;100329.08;67563;1282;1016341;-72
2024/01/31 10:05:49;;;;;;;;;;;;;;;11.79;48.32;100332.23;67513;1282;1016658;-72
2024/01/31 10:08:52;;;;;;;;;;;;;;;11.89;48.22;100331.27;67533;1282;1016467;-72
2024/01/31 10:11:54;;;;;;;;;;;;;;;11.84;47.76;100332.52;67561;1282;1016562;-72
2024/01/31 10:14:57;;;;;;;;;;;;;;;11.72;47.89;100333.04;67564;1282;1018930;-72
2024/01/31 10:17:59;;;;;;;;;;;;;;;11.69;47.94;100333.86;67523;1282;1016146;-72
2024/01/31 10:21:02;;;;;;;;;;;;;;;11.67;48.15;100329.91;67528;1282;1018600;-72
2024/01/31 10:24:05;;;;;;;;;;;;;;;11.73;48.08;100318.78;67575;1282;1016347;-72
2024/01/31 10:27:08;;;;;;;;;;;;;;;11.80;48.13;100325.86;67554;1282;1016364;-72
2024/01/31 10:30:11;;;;;;;;;;;;;;;11.77;48.20;100318.44;67571;1282;1016498;-72
2024/01/31 10:33:14;;;;;;;;;;;;;;;11.79;48.41;100318.00;67531;1282;1016460;-72
2024/01/31 10:36:16;;;;;;;;;;;;;;;11.88;48.28;100310.63;67526;1282;1018514;-72
2024/01/31 10:39:20;;;;;;;;;;;;;;;11.99;48.35;100303.88;67550;1282;1015736;-72
2024/01/31 10:42:23;;;;;;;;;;;;;;;12.04;48.27;100302.59;67594;1282;1016491;-71
2024/01/31 10:45:25;;;;;;;;;;;;;;;12.08;48.39;100300.67;67569;1282;1016453;-72
2024/01/31 10:48:28;;;;;;;;;;;;;;;12.14;48.50;100296.91;67568;1282;1016401;-71
2024/01/31 10:51:30;;;;;;;;;;;;;;;12.14;48.70;100292.50;67538;1282;1017986;-72
2024/01/31 10:54:33;;;;;;;;;;;;;;;12.23;48.70;100291.94;67538;1282;1016393;-72
2024/01/31 10:57:37;;;;;;;;;;;;;;;12.20;49.01;100295.95;67572;1282;1016458;-72
2024/01/31 11:00:40;;;;;;;;;;;;;;;12.14;49.03;100293.56;67571;1282;1016484;-72
2024/01/31 11:03:42;;;;;;;;;;;;;;;12.17;49.35;100289.97;67532;1282;1016518;-72
2024/01/31 11:06:45;;;;;;;;;;;;;;;12.17;49.59;100294.16;67539;1282;1016365;-72
2024/01/31 11:10:08;;;;;;;;;;;;;;;12.18;49.77;100295.85;67518;1282;1016625;-72
2024/01/31 11:13:11;;;;;;;;;;;;;;;12.11;50.14;100295.80;67533;1282;1016476;-72
2024/01/31 11:16:14;;;;;;;;;;;;;;;12.07;50.44;100290.04;67529;1282;1016708;-72
2024/01/31 11:19:17;;;;;;;;;;;;;;;11.89;51.03;100292.19;67513;1282;1016443;-70
2024/01/31 11:22:19;;;;;;;;;;;;;;;11.80;51.44;100289.41;67563;1282;1016400;-72
2024/01/31 11:25:22;;;;;;;;;;;;;;;11.74;51.61;100294.21;67567;1282;1016390;-72
2024/01/31 11:28:24;;;;;;;;;;;;;;;11.77;51.51;100290.39;67592;1282;1016453;-72
2024/01/31 11:31:27;;;;;;;;;;;;;;;11.77;51.82;100279.02;67520;1282;1017202;-72
2024/01/31 11:34:29;;;;;;;;;;;;;;;11.68;52.10;100282.20;67549;1282;1016145;-72
2024/01/31 11:37:32;;;;;;;;;;;;;;;11.66;52.50;100273.38;67558;1282;1016449;-72
2024/01/31 11:40:34;;;;;;;;;;;;;;;11.78;52.23;100260.56;67547;1282;1016484;-72
2024/01/31 11:43:37;;;;;;;;;;;;;;;11.98;51.91;100245.70;67538;1282;1016665;-72
2024/01/31 11:46:39;;;;;;;;;;;;;;;12.05;51.78;100252.24;67525;1282;1016333;-72
2024/01/31 11:49:42;;;;;;;;;;;;;;;12.11;51.84;100248.09;67564;1282;1016502;-72
2024/01/31 11:52:44;;;;;;;;;;;;;;;12.13;51.73;100247.86;67571;1282;1016444;-70
2024/01/31 11:55:47;;;;;;;;;;;;;;;12.27;51.60;100246.52;67537;1282;1016477;-70
2024/01/31 11:58:51;;;;;;;;;;;;;;;12.52;51.23;100239.61;67541;1282;1016476;-72
2024/01/31 12:01:53;;;;;;;;;;;;;;;12.63;50.84;100240.48;67539;1282;1016466;-72
2024/01/31 12:04:56;;;;;;;;;;;;;;;12.66;50.58;100237.02;67565;1282;1016256;-71
2024/01/31 12:07:58;;;;;;;;;;;;;;;12.75;50.63;100231.68;67584;1282;1016447;-69
2024/01/31 12:11:02;;;;;;;;;;;;;;;12.76;50.87;100226.02;67530;1282;1016144;-71
2024/01/31 12:14:06;;;;;;;;;;;;;;;12.79;50.74;100231.50;67538;1282;1016301;-71
2024/01/31 12:17:08;;;;;;;;;;;;;;;12.80;50.87;100232.83;67580;1282;1016472;-71
2024/01/31 12:20:12;;;;;;;;;;;;;;;12.62;51.02;100231.77;67536;1282;1016228;-72
2024/01/31 12:23:15;;;;;;;;;;;;;;;12.63;51.11;100231.20;67538;1282;1016520;-72
2024/01/31 12:26:18;;;;;;;;;;;;;;;12.64;50.99;100233.94;67539;1282;1016276;-69
2024/01/31 12:29:21;;;;;;;;;;;;;;;12.56;50.98;100231.15;67585;1282;1017308;-71
2024/01/31 12:32:23;;;;;;;;;;;;;;;12.57;51.35;100229.21;67548;1282;1016128;-68
2024/01/31 12:35:26;;;;;;;;;;;;;;;12.65;51.14;100223.20;67534;1282;1016471;-72
2024/01/31 12:38:28;;;;;;;;;;;;;;;12.61;50.99;100222.33;67530;1282;1016038;-72
2024/01/31 12:41:31;;;;;;;;;;;;;;;12.69;50.76;100215.46;67558;1282;1016286;-72
2024/01/31 12:44:33;;;;;;;;;;;;;;;12.86;50.86;100217.09;67565;1282;1016366;-72
2024/01/31 12:47:36;;;;;;;;;;;;;;;13.10;50.75;100217.52;67546;1282;1016060;-72
2024/01/31 12:50:38;;;;;;;;;;;;;;;13.31;50.03;100205.06;67531;1282;1015912;-67
2024/01/31 12:53:41;;;;;;;;;;;;;;;13.41;49.62;100209.53;67524;1282;1016495;-72
2024/01/31 12:56:43;;;;;;;;;;;;;;;13.35;49.74;100218.06;67596;1282;1016676;-72
2024/01/31 12:59:46;;;;;;;;;;;;;;;13.42;49.81;100214.58;67555;1282;1016602;-72
2024/01/31 13:02:49;;;;;;;;;;;;;;;13.42;49.99;100206.84;67581;1282;1016906;-72
2024/01/31 13:05:52;;;;;;;;;;;;;;;13.37;50.14;100201.44;67550;1282;1016430;-73
2024/01/31 13:08:54;;;;;;;;;;;;;;;13.32;50.49;100201.85;67524;1282;1019397;-72
2024/01/31 13:11:57;;;;;;;;;;;;;;;13.29;50.32;100199.53;67570;1282;1018758;-72
2024/01/31 13:15:00;;;;;;;;;;;;;;;13.29;50.58;100201.32;67507;1282;1016464;-72
2024/01/31 13:18:03;;;;;;;;;;;;;;;13.23;50.49;100204.45;67548;1282;1015745;-72
2024/01/31 13:21:05;;;;;;;;;;;;;;;13.13;50.90;100208.77;67564;1282;1016225;-72
2024/01/31 13:24:08;;;;;;;;;;;;;;;13.09;51.02;100208.95;67529;1282;1016511;-72
2024/01/31 13:27:10;;;;;;;;;;;;;;;13.10;50.73;100203.48;67531;1282;1016427;-72
2024/01/31 13:30:13;;;;;;;;;;;;;;;12.98;50.92;100203.89;67571;1282;1016169;-71
2024/01/31 13:33:15;;;;;;;;;;;;;;;12.83;51.00;100208.31;67577;1282;1016518;-72
2024/01/31 13:36:20;;;;;;;;;;;;;;;12.76;51.72;100211.09;67539;1282;1016402;-70
2024/01/31 13:39:23;;;;;;;;;;;;;;;12.71;51.63;100218.88;67576;1282;1016502;-72
2024/01/31 13:42:26;;;;;;;;;;;;;;;12.93;50.91;100212.77;67551;1282;1015770;-72
2024/01/31 13:45:28;;;;;;;;;;;;;;;12.96;51.02;100208.39;67550;1282;1016046;-72
2024/01/31 13:48:31;;;;;;;;;;;;;;;12.97;51.23;100210.46;67539;1282;1016446;-72
2024/01/31 13:51:33;;;;;;;;;;;;;;;12.85;51.16;100209.42;67587;1282;1016487;-72
2024/01/31 13:54:36;;;;;;;;;;;;;;;12.80;51.52;100205.45;67573;1282;1016476;-72
2024/01/31 13:57:38;;;;;;;;;;;;;;;12.82;51.34;100201.85;67539;1282;1016401;-72
2024/01/31 14:00:41;;;;;;;;;;;;;;;12.84;51.55;100200.89;67547;1282;1018976;-71
2024/01/31 14:03:44;;;;;;;;;;;;;;;12.83;51.41;100194.08;67604;1282;1016412;-72
2024/01/31 14:06:46;;;;;;;;;;;;;;;12.84;51.30;100200.17;67527;1282;1016127;-72
2024/01/31 14:09:49;;;;;;;;;;;;;;;12.78;51.34;100200.64;67543;1282;1016315;-72
2024/01/31 14:12:51;;;;;;;;;;;;;;;12.76;51.61;100190.20;67576;1282;1016494;-72
2024/01/31 14:15:54;;;;;;;;;;;;;;;12.78;51.57;100192.20;67580;1282;1016053;-72
2024/01/31 14:18:56;;;;;;;;;;;;;;;12.89;51.45;100186.10;67530;1282;1016472;-72
2024/01/31 14:22:00;;;;;;;;;;;;;;;12.90;51.53;100184.98;67529;1282;1016502;-72
2024/01/31 14:25:02;;;;;;;;;;;;;;;12.77;51.54;100176.28;67546;1282;1016549;-72
2024/01/31 14:28:05;;;;;;;;;;;;;;;12.82;51.48;100172.55;67545;1282;1017676;-72
2024/01/31 14:31:08;;;;;;;;;;;;;;;12.80;51.37;100174.36;67561;1282;1016266;-72
2024/01/31 14:34:11;;;;;;;;;;;;;;;12.69;51.42;100178.63;67553;1282;1016472;-72
2024/01/31 14:37:13;;;;;;;;;;;;;;;12.75;51.34;100178.33;67567;1282;1016245;-72
2024/01/31 14:40:16;;;;;;;;;;;;;;;12.83;51.19;100170.40;67554;1282;1016045;-72
2024/01/31 14:43:19;;;;;;;;;;;;;;;12.75;51.22;100164.83;67526;1282;1019456;-72
2024/01/31 14:46:21;;;;;;;;;;;;;;;12.65;51.29;100162.51;67537;1282;1016432;-72
2024/01/31 14:49:24;;;;;;;;;;;;;;;12.54;51.56;100163.73;67584;1282;1016466;-71
2024/01/31 14:52:29;;;;;;;;;;;;;;;12.67;50.97;100164.65;67573;1282;1016534;-72
2024/01/31 14:55:34;;;;;;;;;;;;;;;12.58;50.99;100165.83;67583;1282;1015913;-72
2024/01/31 14:58:36;;;;;;;;;;;;;;;12.43;51.35;100163.17;67551;1282;1016256;-72
2024/01/31 15:01:39;;;;;;;;;;;;;;;12.32;51.55;100151.05;67554;1282;1016403;-72
2024/01/31 15:04:41;;;;;;;;;;;;;;;12.28;51.50;100149.52;67540;1282;1016416;-72
2024/01/31 15:07:44;;;;;;;;;;;;;;;12.28;51.22;100156.33;67551;1282;1015839;-72
2024/01/31 15:10:46;;;;;;;;;;;;;;;12.24;51.24;100158.31;67590;1282;1017656;-72
2024/01/31 15:13:49;;;;;;;;;;;;;;;12.09;51.54;100158.08;67570;1282;1016398;-71
2024/01/31 15:16:51;;;;;;;;;;;;;;;11.98;51.66;100151.92;67556;1282;1017482;-72
2024/01/31 15:19:54;;;;;;;;;;;;;;;11.92;51.81;100152.90;67529;1282;1016469;-72
2024/01/31 15:22:56;;;;;;;;;;;;;;;11.76;51.80;100150.41;67598;1282;1016154;-72
2024/01/31 15:25:59;;;;;;;;;;;;;;;11.56;52.21;100147.48;67589;1282;1016388;-72